Time;durP1;ratioP1;P1;durP2;ratioP2;P2;SDS_P1;SDS_P2;PMS_P1;PMS_P2;Temp;Humidity;BMP_temperature;BMP_pressure;BME280_temperature;BME280_humidity;BME280_pressure;Samples;Min_cycle;Max_cycle;Signal;HPM_P1;HPM_P2
2023/01/23 00:01:13;;;;;;;;;;;2.00;98.40;;;;;;5006214;28;19929;-78
2023/01/23 00:03:41;;;;;;;;;;;2.00;98.40;;;;;;5007405;28;19937;-78
2023/01/23 00:06:09;;;;;;;;;;;2.00;98.40;;;;;;5008257;28;19929;-79
2023/01/23 00:08:35;;;;;;;;;;;2.00;98.40;;;;;;5000411;28;19984;-78
2023/01/23 00:11:04;;;;;;;;;;;2.00;98.40;;;;;;5004662;28;19988;-78
2023/01/23 00:13:31;;;;;;;;;;;2.00;98.40;;;;;;5006646;28;20231;-78
2023/01/23 00:15:57;;;;;;;;;;;2.00;98.40;;;;;;5010335;28;19954;-79
2023/01/23 00:18:24;;;;;;;;;;;2.00;98.40;;;;;;5008063;28;19944;-78
2023/01/23 00:20:52;;;;;;;;;;;2.00;98.40;;;;;;5004211;28;19933;-78
2023/01/23 00:23:18;;;;;;;;;;;2.00;98.40;;;;;;5009563;28;19930;-78
2023/01/23 00:25:45;;;;;;;;;;;2.00;98.30;;;;;;5013811;28;19937;-78
2023/01/23 00:28:11;;;;;;;;;;;2.00;98.40;;;;;;5002021;28;19937;-78
2023/01/23 00:30:38;;;;;;;;;;;2.00;98.30;;;;;;5009152;28;19929;-79
2023/01/23 00:33:04;;;;;;;;;;;2.00;98.40;;;;;;5010115;28;19940;-78
2023/01/23 00:35:31;;;;;;;;;;;2.00;98.40;;;;;;5008935;28;19939;-78
2023/01/23 00:37:58;;;;;;;;;;;1.90;98.40;;;;;;5010259;28;19929;-79
2023/01/23 00:40:25;;;;;;;;;;;1.90;98.40;;;;;;5009284;28;20311;-80
2023/01/23 00:42:53;;;;;;;;;;;1.90;98.40;;;;;;5005607;28;19933;-78
2023/01/23 00:45:19;;;;;;;;;;;1.90;98.40;;;;;;5011682;28;19934;-79
2023/01/23 00:47:46;;;;;;;;;;;1.90;98.40;;;;;;5006661;28;20429;-78
2023/01/23 00:50:13;;;;;;;;;;;1.90;98.40;;;;;;5007778;28;19929;-79
2023/01/23 00:52:40;;;;;;;;;;;2.00;98.50;;;;;;5003974;28;19933;-79
2023/01/23 00:55:08;;;;;;;;;;;1.90;98.40;;;;;;5011012;28;19929;-79
2023/01/23 00:57:35;;;;;;;;;;;1.90;98.40;;;;;;5003733;28;19971;-78
2023/01/23 01:00:02;;;;;;;;;;;1.90;98.40;;;;;;5012156;28;19984;-78
2023/01/23 01:02:28;;;;;;;;;;;1.90;98.50;;;;;;5006403;28;19929;-78
2023/01/23 01:04:55;;;;;;;;;;;1.90;98.50;;;;;;5008034;28;19933;-78
2023/01/23 01:07:21;;;;;;;;;;;1.90;98.50;;;;;;5011414;28;19982;-79
2023/01/23 01:09:48;;;;;;;;;;;1.90;98.50;;;;;;5003938;28;20315;-78
2023/01/23 01:12:16;;;;;;;;;;;1.90;98.50;;;;;;5006206;28;19933;-79
2023/01/23 01:14:42;;;;;;;;;;;1.90;98.50;;;;;;5016648;28;19933;-77
2023/01/23 01:17:09;;;;;;;;;;;1.90;98.50;;;;;;5005958;28;19937;-77
2023/01/23 01:19:36;;;;;;;;;;;1.90;98.50;;;;;;5011174;28;19939;-79
2023/01/23 01:22:02;;;;;;;;;;;1.90;98.50;;;;;;5010703;28;19929;-77
2023/01/23 01:24:29;;;;;;;;;;;1.90;98.50;;;;;;5008378;28;19933;-76
2023/01/23 01:26:55;;;;;;;;;;;1.90;98.50;;;;;;5002060;28;21634;-79
2023/01/23 01:29:23;;;;;;;;;;;1.90;98.50;;;;;;5002545;28;19929;-77
2023/01/23 01:31:50;;;;;;;;;;;1.90;98.60;;;;;;5005274;28;19929;-78
2023/01/23 01:34:16;;;;;;;;;;;1.90;98.60;;;;;;5011731;28;19932;-77
2023/01/23 01:36:43;;;;;;;;;;;1.90;98.60;;;;;;5007998;28;20332;-77
2023/01/23 01:39:09;;;;;;;;;;;1.90;98.60;;;;;;5008859;28;19937;-77
2023/01/23 01:41:36;;;;;;;;;;;1.90;98.60;;;;;;5005699;28;19929;-77
2023/01/23 01:44:02;;;;;;;;;;;1.90;98.60;;;;;;5012300;28;20454;-79
2023/01/23 01:46:31;;;;;;;;;;;1.90;98.60;;;;;;5005794;28;19933;-77
2023/01/23 01:49:01;;;;;;;;;;;1.90;98.60;;;;;;5008155;28;20020;-76
2023/01/23 01:51:31;;;;;;;;;;;1.90;98.60;;;;;;5000280;28;19929;-77
2023/01/23 01:54:02;;;;;;;;;;;1.80;98.60;;;;;;5004945;28;20215;-77
2023/01/23 01:56:30;;;;;;;;;;;1.80;98.70;;;;;;4998678;28;19934;-77
2023/01/23 01:58:57;;;;;;;;;;;1.80;98.70;;;;;;5005364;28;19940;-77
2023/01/23 02:01:23;;;;;;;;;;;1.90;98.70;;;;;;5010846;28;19936;-78
2023/01/23 02:03:52;;;;;;;;;;;1.90;98.70;;;;;;5011387;28;19937;-78
2023/01/23 02:06:19;;;;;;;;;;;1.90;98.70;;;;;;5011912;28;19944;-78
2023/01/23 02:08:48;;;;;;;;;;;1.90;98.70;;;;;;5005870;28;19934;-76
2023/01/23 02:11:17;;;;;;;;;;;1.80;98.70;;;;;;5002677;28;19932;-77
2023/01/23 02:13:44;;;;;;;;;;;1.90;98.70;;;;;;5011415;28;19933;-76
2023/01/23 02:16:12;;;;;;;;;;;1.80;98.70;;;;;;5009315;28;20024;-77
2023/01/23 02:18:43;;;;;;;;;;;1.90;98.80;;;;;;5008198;28;19933;-79
2023/01/23 02:21:12;;;;;;;;;;;1.80;98.70;;;;;;5004758;28;19930;-77
2023/01/23 02:23:42;;;;;;;;;;;1.80;98.70;;;;;;5003843;28;20592;-77
2023/01/23 02:26:12;;;;;;;;;;;1.90;98.80;;;;;;5004346;28;20298;-77
2023/01/23 02:28:39;;;;;;;;;;;1.80;98.70;;;;;;5006028;28;19929;-78
2023/01/23 02:31:06;;;;;;;;;;;1.90;98.80;;;;;;5001970;28;19933;-78
2023/01/23 02:33:44;;;;;;;;;;;1.80;98.70;;;;;;5009522;28;20362;-78
2023/01/23 02:36:11;;;;;;;;;;;1.90;98.80;;;;;;5003557;28;19940;-77
2023/01/23 02:38:40;;;;;;;;;;;1.80;99.00;;;;;;5007100;28;20529;-78
2023/01/23 02:41:08;;;;;;;;;;;1.80;98.70;;;;;;5009090;28;19936;-77
2023/01/23 02:43:37;;;;;;;;;;;1.90;98.70;;;;;;5009751;28;19940;-78
2023/01/23 02:46:04;;;;;;;;;;;1.80;98.70;;;;;;5004468;28;19936;-79
2023/01/23 02:48:31;;;;;;;;;;;1.80;98.70;;;;;;4999940;28;19937;-77
2023/01/23 02:50:57;;;;;;;;;;;1.80;98.70;;;;;;5000583;28;20379;-76
2023/01/23 02:53:24;;;;;;;;;;;1.80;98.70;;;;;;5010896;28;19987;-78
2023/01/23 02:55:51;;;;;;;;;;;1.80;98.70;;;;;;5003597;28;19976;-77
2023/01/23 03:01:03;;;;;;;;;;;1.80;98.70;;;;;;5006746;28;21043;-77
2023/01/23 03:03:29;;;;;;;;;;;1.80;98.70;;;;;;5004884;28;20029;-77
2023/01/23 03:05:56;;;;;;;;;;;1.80;98.70;;;;;;5011028;28;19987;-78
2023/01/23 03:08:33;;;;;;;;;;;1.80;98.70;;;;;;5006709;28;20370;-78
2023/01/23 03:11:00;;;;;;;;;;;1.80;98.70;;;;;;5003836;28;20568;-78
2023/01/23 03:13:27;;;;;;;;;;;1.80;98.70;;;;;;5004026;28;20588;-77
2023/01/23 03:15:53;;;;;;;;;;;1.80;98.70;;;;;;5003453;28;19926;-76
2023/01/23 03:18:21;;;;;;;;;;;1.90;98.80;;;;;;5004632;28;19930;-78
2023/01/23 03:20:48;;;;;;;;;;;1.80;98.70;;;;;;4999277;28;19934;-77
2023/01/23 03:23:15;;;;;;;;;;;1.80;98.70;;;;;;5003611;28;20391;-77
2023/01/23 03:25:43;;;;;;;;;;;1.80;98.80;;;;;;5004215;28;20012;-78
2023/01/23 03:30:11;;;;;;;;;;;1.90;98.80;;;;;;5002433;28;20380;-79
2023/01/23 03:30:56;;;;;;;;;;;1.80;98.80;;;;;;5007558;28;19930;-76
2023/01/23 03:33:24;;;;;;;;;;;1.80;98.80;;;;;;5004998;28;19930;-78
2023/01/23 03:35:51;;;;;;;;;;;1.80;98.80;;;;;;5006375;28;19972;-77
2023/01/23 03:38:18;;;;;;;;;;;1.80;98.80;;;;;;5006552;28;19933;-77
2023/01/23 03:43:30;;;;;;;;;;;1.80;98.80;;;;;;5002586;28;20426;-77
2023/01/23 03:45:57;;;;;;;;;;;1.80;98.80;;;;;;4997961;28;19968;-77
2023/01/23 03:48:25;;;;;;;;;;;1.80;98.80;;;;;;5006172;28;20358;-78
2023/01/23 03:50:51;;;;;;;;;;;1.80;98.80;;;;;;5006973;28;20434;-79
2023/01/23 03:53:18;;;;;;;;;;;1.80;98.80;;;;;;5013007;28;20323;-78
2023/01/23 03:55:44;;;;;;;;;;;1.80;98.80;;;;;;5006683;28;19929;-79
2023/01/23 03:58:11;;;;;;;;;;;1.80;98.80;;;;;;5010586;28;19930;-78
2023/01/23 04:00:37;;;;;;;;;;;1.80;98.80;;;;;;4999659;28;19937;-77
2023/01/23 04:03:04;;;;;;;;;;;1.80;98.80;;;;;;5013695;28;19983;-77
2023/01/23 04:05:32;;;;;;;;;;;1.80;98.80;;;;;;5008185;28;19972;-77
2023/01/23 04:07:58;;;;;;;;;;;1.80;98.80;;;;;;5010973;28;20350;-77
2023/01/23 04:10:25;;;;;;;;;;;1.80;98.80;;;;;;5007865;28;19965;-77
2023/01/23 04:12:52;;;;;;;;;;;1.80;98.80;;;;;;5005697;28;19929;-77
2023/01/23 04:15:18;;;;;;;;;;;1.80;98.80;;;;;;5006161;28;19937;-76
2023/01/23 04:17:45;;;;;;;;;;;1.80;98.80;;;;;;5007801;28;19929;-78
2023/01/23 04:20:12;;;;;;;;;;;1.80;98.80;;;;;;5003464;28;19929;-77
2023/01/23 04:22:40;;;;;;;;;;;1.80;98.90;;;;;;5008181;28;19945;-79
2023/01/23 04:25:07;;;;;;;;;;;1.80;98.80;;;;;;5008411;28;20663;-76
2023/01/23 04:27:33;;;;;;;;;;;1.80;98.80;;;;;;5002447;28;19930;-76
2023/01/23 04:30:00;;;;;;;;;;;1.80;98.80;;;;;;5007329;28;19936;-77
2023/01/23 04:32:26;;;;;;;;;;;1.80;98.80;;;;;;5009734;28;19937;-77
2023/01/23 04:34:53;;;;;;;;;;;1.80;98.80;;;;;;5005897;28;19930;-78
2023/01/23 04:37:19;;;;;;;;;;;1.80;98.80;;;;;;5007674;28;19933;-78
2023/01/23 04:39:47;;;;;;;;;;;1.80;98.80;;;;;;5009420;28;19929;-77
2023/01/23 04:42:14;;;;;;;;;;;1.80;98.80;;;;;;5006986;28;19929;-77
2023/01/23 04:44:40;;;;;;;;;;;1.80;98.80;;;;;;5013674;28;20016;-77
2023/01/23 04:47:07;;;;;;;;;;;1.80;98.80;;;;;;5005806;28;19956;-78
2023/01/23 04:49:33;;;;;;;;;;;1.80;98.80;;;;;;5006292;28;19941;-78
2023/01/23 04:52:00;;;;;;;;;;;1.80;98.90;;;;;;5005580;28;19980;-77
2023/01/23 04:54:26;;;;;;;;;;;1.80;98.80;;;;;;5014210;28;19937;-77
2023/01/23 04:56:54;;;;;;;;;;;1.80;98.80;;;;;;5009605;28;19929;-77
2023/01/23 04:59:22;;;;;;;;;;;1.80;98.80;;;;;;5006824;28;19929;-78
2023/01/23 05:01:49;;;;;;;;;;;1.80;98.80;;;;;;5005255;28;20447;-78
2023/01/23 05:04:15;;;;;;;;;;;1.80;98.80;;;;;;5007487;28;20679;-77
2023/01/23 05:06:42;;;;;;;;;;;1.80;98.80;;;;;;5007232;28;19976;-77
2023/01/23 05:09:08;;;;;;;;;;;1.80;98.80;;;;;;5006305;28;19933;-77
2023/01/23 05:11:35;;;;;;;;;;;1.80;98.90;;;;;;5002462;28;19953;-76
2023/01/23 05:14:03;;;;;;;;;;;1.80;98.90;;;;;;5006574;28;19933;-78
2023/01/23 05:16:29;;;;;;;;;;;1.80;98.90;;;;;;5009102;28;19936;-77
2023/01/23 05:18:56;;;;;;;;;;;1.80;98.90;;;;;;5007347;28;20047;-79
2023/01/23 05:21:22;;;;;;;;;;;1.80;98.90;;;;;;5005802;28;20339;-78
2023/01/23 05:23:49;;;;;;;;;;;1.80;98.90;;;;;;5006377;28;19984;-76
2023/01/23 05:26:15;;;;;;;;;;;1.80;98.90;;;;;;5004786;28;19929;-77
2023/01/23 05:28:42;;;;;;;;;;;1.80;98.90;;;;;;5015112;28;19968;-78
2023/01/23 05:31:10;;;;;;;;;;;1.80;98.90;;;;;;5001420;28;19945;-79
2023/01/23 05:33:36;;;;;;;;;;;1.80;98.90;;;;;;5006754;28;19987;-77
2023/01/23 05:36:03;;;;;;;;;;;1.80;98.90;;;;;;5007768;28;19925;-78
2023/01/23 05:38:29;;;;;;;;;;;1.80;99.00;;;;;;5005384;28;19925;-77
2023/01/23 05:40:56;;;;;;;;;;;1.80;99.00;;;;;;5004417;28;19934;-79
2023/01/23 05:43:22;;;;;;;;;;;1.80;99.00;;;;;;5003518;28;19930;-78
2023/01/23 05:45:49;;;;;;;;;;;1.80;99.00;;;;;;5007996;28;19984;-79
2023/01/23 05:48:17;;;;;;;;;;;1.80;99.00;;;;;;5009413;28;19934;-78
2023/01/23 05:50:43;;;;;;;;;;;1.80;98.90;;;;;;5002532;28;19983;-78
2023/01/23 05:53:10;;;;;;;;;;;1.80;98.90;;;;;;5006469;28;19968;-77
2023/01/23 05:55:37;;;;;;;;;;;1.80;98.90;;;;;;5011491;28;19933;-77
2023/01/23 05:58:04;;;;;;;;;;;1.80;98.90;;;;;;5005131;28;19929;-79
2023/01/23 06:00:30;;;;;;;;;;;1.80;98.90;;;;;;5002679;28;19934;-76
2023/01/23 06:02:57;;;;;;;;;;;1.80;98.90;;;;;;5000549;28;19925;-76
2023/01/23 06:05:25;;;;;;;;;;;1.70;98.90;;;;;;5007378;28;20214;-77
2023/01/23 06:07:51;;;;;;;;;;;1.80;98.90;;;;;;5005733;28;19934;-77
2023/01/23 06:10:18;;;;;;;;;;;1.70;98.90;;;;;;5005644;28;19936;-77
2023/01/23 06:12:45;;;;;;;;;;;1.70;98.90;;;;;;5005500;28;19933;-78
2023/01/23 06:15:11;;;;;;;;;;;1.70;98.90;;;;;;5000002;28;19932;-79
2023/01/23 06:17:38;;;;;;;;;;;1.70;98.90;;;;;;5009957;28;19934;-78
2023/01/23 06:20:05;;;;;;;;;;;1.70;98.90;;;;;;5007271;28;19941;-80
2023/01/23 06:22:33;;;;;;;;;;;1.70;98.90;;;;;;5008629;28;19930;-82
2023/01/23 06:24:59;;;;;;;;;;;1.60;98.80;;;;;;5009203;28;20027;-81
2023/01/23 06:27:26;;;;;;;;;;;1.60;98.90;;;;;;5016480;28;19934;-81
2023/01/23 06:29:52;;;;;;;;;;;1.60;99.00;;;;;;5010843;28;19941;-81
2023/01/23 06:32:19;;;;;;;;;;;1.60;99.00;;;;;;5007698;28;20418;-79
2023/01/23 06:34:45;;;;;;;;;;;1.60;99.00;;;;;;5004747;28;19940;-80
2023/01/23 06:37:12;;;;;;;;;;;1.60;99.00;;;;;;5004037;28;20012;-82
2023/01/23 06:39:40;;;;;;;;;;;1.60;99.00;;;;;;5006116;28;19929;-81
2023/01/23 06:42:09;;;;;;;;;;;1.60;99.00;;;;;;5003551;28;20048;-79
2023/01/23 06:44:35;;;;;;;;;;;1.60;98.90;;;;;;5004062;28;20436;-79
2023/01/23 06:47:02;;;;;;;;;;;1.60;98.90;;;;;;5004724;28;19937;-79
2023/01/23 06:49:28;;;;;;;;;;;1.60;98.80;;;;;;5002487;28;19944;-73
2023/01/23 06:51:55;;;;;;;;;;;1.60;98.80;;;;;;5011612;28;19933;-72
2023/01/23 06:54:21;;;;;;;;;;;1.60;98.80;;;;;;5004044;28;20460;-73
2023/01/23 06:56:50;;;;;;;;;;;1.60;98.80;;;;;;5007271;28;19933;-73
2023/01/23 06:59:17;;;;;;;;;;;1.60;98.80;;;;;;5003485;28;20531;-73
2023/01/23 07:01:43;;;;;;;;;;;1.60;98.80;;;;;;5003813;28;19929;-72
2023/01/23 07:04:10;;;;;;;;;;;1.60;98.70;;;;;;5008167;28;19972;-71
2023/01/23 07:06:36;;;;;;;;;;;1.60;98.70;;;;;;5006317;28;19954;-72
2023/01/23 07:09:03;;;;;;;;;;;1.60;98.70;;;;;;4998834;28;20000;-73
2023/01/23 07:11:29;;;;;;;;;;;1.60;98.70;;;;;;5002875;28;19930;-73
2023/01/23 07:13:57;;;;;;;;;;;1.60;98.70;;;;;;5004587;28;19930;-73
2023/01/23 07:16:24;;;;;;;;;;;1.60;98.70;;;;;;5000469;28;19936;-79
2023/01/23 07:18:51;;;;;;;;;;;1.60;98.70;;;;;;5005902;28;20406;-78
2023/01/23 07:21:17;;;;;;;;;;;1.60;98.70;;;;;;5007062;28;19936;-79
2023/01/23 07:23:44;;;;;;;;;;;1.60;98.70;;;;;;5001718;28;19929;-79
2023/01/23 07:26:11;;;;;;;;;;;1.60;98.70;;;;;;5003994;28;19965;-80
2023/01/23 07:28:37;;;;;;;;;;;1.60;98.70;;;;;;5005614;28;19936;-79
2023/01/23 07:31:05;;;;;;;;;;;1.60;98.70;;;;;;5005163;28;19999;-79
2023/01/23 07:33:32;;;;;;;;;;;1.60;98.70;;;;;;5006402;28;19934;-80
2023/01/23 07:35:59;;;;;;;;;;;1.60;98.60;;;;;;5004982;28;19933;-79
2023/01/23 07:38:25;;;;;;;;;;;1.60;98.70;;;;;;5000467;28;19930;-79
2023/01/23 07:40:52;;;;;;;;;;;1.60;98.70;;;;;;5004854;28;19936;-79
2023/01/23 07:43:19;;;;;;;;;;;1.60;98.60;;;;;;5011607;28;19934;-80
2023/01/23 07:45:46;;;;;;;;;;;1.60;98.60;;;;;;5009121;28;20501;-80
2023/01/23 07:48:13;;;;;;;;;;;1.60;98.60;;;;;;5002335;28;19980;-79
2023/01/23 07:50:40;;;;;;;;;;;1.60;98.60;;;;;;5003702;28;19937;-80
2023/01/23 07:53:06;;;;;;;;;;;1.60;98.60;;;;;;5007126;28;19936;-79
2023/01/23 07:55:33;;;;;;;;;;;1.60;98.60;;;;;;5004303;28;19933;-80
2023/01/23 07:58:00;;;;;;;;;;;1.60;98.60;;;;;;5006607;28;19936;-80
2023/01/23 08:00:26;;;;;;;;;;;1.60;98.60;;;;;;5002878;28;19941;-79
2023/01/23 08:02:53;;;;;;;;;;;1.60;98.60;;;;;;5008645;28;19960;-81
2023/01/23 08:05:21;;;;;;;;;;;1.60;98.60;;;;;;4999988;28;20323;-73
2023/01/23 08:07:47;;;;;;;;;;;1.60;98.60;;;;;;5001621;28;19929;-73
2023/01/23 08:10:14;;;;;;;;;;;1.60;98.50;;;;;;5000906;28;19926;-73
2023/01/23 08:12:40;;;;;;;;;;;1.60;98.50;;;;;;5002563;28;19933;-73
2023/01/23 08:15:07;;;;;;;;;;;1.60;98.50;;;;;;5002775;28;19960;-74
2023/01/23 08:17:34;;;;;;;;;;;1.60;98.50;;;;;;5004809;28;20388;-73
2023/01/23 08:20:00;;;;;;;;;;;1.60;98.50;;;;;;5003889;28;20387;-72
2023/01/23 08:22:28;;;;;;;;;;;1.60;98.50;;;;;;5000495;28;19952;-73
2023/01/23 08:24:55;;;;;;;;;;;1.60;98.50;;;;;;5002955;28;20445;-73
2023/01/23 08:27:22;;;;;;;;;;;1.60;98.50;;;;;;5004393;28;19929;-73
2023/01/23 08:29:48;;;;;;;;;;;1.60;98.50;;;;;;5004841;28;20284;-73
2023/01/23 08:32:15;;;;;;;;;;;1.60;98.50;;;;;;5002573;28;19929;-72
2023/01/23 08:34:41;;;;;;;;;;;1.60;98.40;;;;;;5004460;28;19937;-73
2023/01/23 08:37:08;;;;;;;;;;;1.60;98.40;;;;;;5005371;28;19929;-73
2023/01/23 08:39:35;;;;;;;;;;;1.60;98.40;;;;;;5006361;28;19937;-73
2023/01/23 08:42:02;;;;;;;;;;;1.60;98.50;;;;;;5005427;28;19929;-73
2023/01/23 08:44:30;;;;;;;;;;;1.70;98.50;;;;;;5006677;28;19972;-73
2023/01/23 08:46:56;;;;;;;;;;;1.60;98.40;;;;;;5010331;28;19941;-73
2023/01/23 08:49:23;;;;;;;;;;;1.70;98.40;;;;;;5003707;28;19945;-72
2023/01/23 08:51:49;;;;;;;;;;;1.70;98.40;;;;;;5011934;28;19983;-73
2023/01/23 08:54:16;;;;;;;;;;;1.70;98.50;;;;;;5007389;28;19941;-73
2023/01/23 08:56:43;;;;;;;;;;;1.70;98.40;;;;;;5011898;28;19937;-73
2023/01/23 08:59:10;;;;;;;;;;;1.70;98.40;;;;;;5011184;28;19933;-74
2023/01/23 09:01:36;;;;;;;;;;;1.70;98.40;;;;;;5008661;28;19952;-73
2023/01/23 09:04:03;;;;;;;;;;;1.70;98.40;;;;;;5004798;28;20494;-73
2023/01/23 09:06:30;;;;;;;;;;;1.70;98.40;;;;;;5003767;28;20388;-82
2023/01/23 09:08:56;;;;;;;;;;;1.70;98.50;;;;;;5004727;28;19937;-73
2023/01/23 09:11:23;;;;;;;;;;;1.70;98.40;;;;;;5002026;28;19929;-73
2023/01/23 09:13:51;;;;;;;;;;;1.80;98.50;;;;;;5007440;28;19981;-73
2023/01/23 09:16:18;;;;;;;;;;;1.80;98.50;;;;;;5004736;28;20303;-73
2023/01/23 09:18:44;;;;;;;;;;;1.80;98.40;;;;;;5003409;28;19929;-72
2023/01/23 09:21:13;;;;;;;;;;;1.80;98.40;;;;;;5004325;28;20013;-73
2023/01/23 09:23:39;;;;;;;;;;;1.80;98.40;;;;;;5007329;28;19996;-73
2023/01/23 09:26:06;;;;;;;;;;;1.80;98.40;;;;;;5004497;28;19925;-73
2023/01/23 09:28:33;;;;;;;;;;;1.80;98.30;;;;;;5007625;28;19929;-73
2023/01/23 09:31:03;;;;;;;;;;;1.80;98.30;;;;;;5001917;28;19980;-73
2023/01/23 09:33:30;;;;;;;;;;;1.80;98.30;;;;;;5006249;28;19940;-71
2023/01/23 09:35:57;;;;;;;;;;;1.90;98.30;;;;;;5006253;28;19930;-73
2023/01/23 09:38:23;;;;;;;;;;;1.90;98.30;;;;;;5005613;28;20032;-73
2023/01/23 09:40:51;;;;;;;;;;;1.90;98.30;;;;;;5007661;28;19934;-73
2023/01/23 09:43:26;;;;;;;;;;;1.90;98.20;;;;;;5007896;28;19933;-73
2023/01/23 09:45:57;;;;;;;;;;;1.90;98.20;;;;;;5005876;28;20016;-74
2023/01/23 09:48:27;;;;;;;;;;;1.90;98.20;;;;;;5003887;28;20281;-73
2023/01/23 09:50:55;;;;;;;;;;;1.90;98.20;;;;;;5003245;28;20391;-72
2023/01/23 09:53:23;;;;;;;;;;;1.90;98.20;;;;;;5005224;28;19934;-73
2023/01/23 09:55:53;;;;;;;;;;;1.90;98.20;;;;;;5005111;28;20496;-73
2023/01/23 09:58:23;;;;;;;;;;;1.90;98.20;;;;;;5007066;28;19934;-73
2023/01/23 10:00:50;;;;;;;;;;;1.90;98.20;;;;;;5000040;28;19941;-73
2023/01/23 10:03:17;;;;;;;;;;;1.90;98.10;;;;;;5003678;28;19936;-73
2023/01/23 10:05:47;;;;;;;;;;;1.90;98.10;;;;;;5005173;28;19988;-72
2023/01/23 10:08:18;;;;;;;;;;;1.90;98.10;;;;;;4997627;28;19930;-73
2023/01/23 10:10:53;;;;;;;;;;;2.00;98.10;;;;;;5001484;28;19936;-73
2023/01/23 10:13:22;;;;;;;;;;;2.00;98.10;;;;;;5004702;28;20315;-73
2023/01/23 10:15:59;;;;;;;;;;;2.00;98.10;;;;;;4997977;28;20016;-72
2023/01/23 10:18:28;;;;;;;;;;;2.00;98.00;;;;;;5004012;28;19936;-73
2023/01/23 10:21:01;;;;;;;;;;;2.00;98.00;;;;;;5004345;28;19930;-73
2023/01/23 10:23:36;;;;;;;;;;;2.00;97.90;;;;;;5005473;28;19937;-73
2023/01/23 10:26:03;;;;;;;;;;;2.00;97.90;;;;;;5002515;28;19929;-73
2023/01/23 10:28:33;;;;;;;;;;;2.00;97.80;;;;;;5007455;28;19998;-73
2023/01/23 10:31:00;;;;;;;;;;;2.00;97.80;;;;;;5007621;28;20394;-73
2023/01/23 10:33:31;;;;;;;;;;;2.00;97.70;;;;;;5004174;28;21961;-73
2023/01/23 10:36:02;;;;;;;;;;;2.00;97.70;;;;;;5005865;28;19937;-74
2023/01/23 10:38:33;;;;;;;;;;;2.00;97.60;;;;;;5003131;28;19937;-73
2023/01/23 10:41:16;;;;;;;;;;;2.00;97.60;;;;;;5003224;28;19953;-73
2023/01/23 10:43:44;;;;;;;;;;;2.00;97.60;;;;;;5005675;28;20615;-73
2023/01/23 10:46:11;;;;;;;;;;;2.10;97.60;;;;;;5009447;28;20015;-73
2023/01/23 10:48:42;;;;;;;;;;;2.10;97.60;;;;;;5003249;28;19965;-73
2023/01/23 10:51:27;;;;;;;;;;;2.10;97.50;;;;;;5000336;28;20398;-73
2023/01/23 10:54:02;;;;;;;;;;;2.10;97.50;;;;;;5000797;28;19983;-73
2023/01/23 10:56:30;;;;;;;;;;;2.10;97.50;;;;;;5002798;28;19933;-73
2023/01/23 10:58:58;;;;;;;;;;;2.10;97.50;;;;;;5004051;28;20043;-72
2023/01/23 11:01:25;;;;;;;;;;;2.10;97.50;;;;;;5007043;28;19925;-73
2023/01/23 11:03:52;;;;;;;;;;;2.10;97.40;;;;;;5006219;28;20544;-74
2023/01/23 11:06:20;;;;;;;;;;;2.10;97.40;;;;;;5010561;28;20317;-73
2023/01/23 11:08:50;;;;;;;;;;;2.10;97.30;;;;;;5002220;28;19929;-73
2023/01/23 11:11:23;;;;;;;;;;;2.10;97.30;;;;;;4999358;28;19937;-73
2023/01/23 11:13:50;;;;;;;;;;;2.10;97.20;;;;;;5004259;28;19936;-73
2023/01/23 11:16:19;;;;;;;;;;;2.20;97.20;;;;;;5007627;28;19938;-73
2023/01/23 11:18:48;;;;;;;;;;;2.20;97.20;;;;;;5002300;28;19933;-72
2023/01/23 11:21:21;;;;;;;;;;;2.20;97.20;;;;;;5011241;28;20013;-72
2023/01/23 11:23:47;;;;;;;;;;;2.20;97.10;;;;;;5000663;28;20536;-72
2023/01/23 11:26:29;;;;;;;;;;;2.20;97.10;;;;;;4998846;28;19952;-72
2023/01/23 11:28:57;;;;;;;;;;;2.20;97.00;;;;;;5004055;28;19933;-73
2023/01/23 11:31:25;;;;;;;;;;;2.20;97.00;;;;;;5002811;28;19934;-73
2023/01/23 11:33:54;;;;;;;;;;;2.20;97.00;;;;;;5002697;28;19929;-74
2023/01/23 11:36:30;;;;;;;;;;;2.20;97.10;;;;;;5002967;28;19937;-73
2023/01/23 11:38:59;;;;;;;;;;;2.20;96.90;;;;;;5001616;28;20018;-73
2023/01/23 11:41:28;;;;;;;;;;;2.30;96.90;;;;;;5002967;28;20000;-73
2023/01/23 11:43:56;;;;;;;;;;;2.30;96.90;;;;;;5002564;28;19929;-73
2023/01/23 11:46:30;;;;;;;;;;;2.30;96.90;;;;;;5002860;28;19933;-73
2023/01/23 11:49:03;;;;;;;;;;;2.30;96.90;;;;;;4998978;28;19936;-73
2023/01/23 11:51:32;;;;;;;;;;;2.30;96.90;;;;;;5002948;28;19929;-73
2023/01/23 11:54:04;;;;;;;;;;;2.30;96.90;;;;;;5003312;28;20380;-72
2023/01/23 11:56:42;;;;;;;;;;;2.30;96.80;;;;;;5007256;28;20890;-72
2023/01/23 11:59:22;;;;;;;;;;;2.40;96.80;;;;;;5003089;28;19936;-72
2023/01/23 12:01:56;;;;;;;;;;;2.40;96.80;;;;;;5000124;28;20418;-73
2023/01/23 12:04:40;;;;;;;;;;;2.40;96.70;;;;;;5004972;28;19937;-74
2023/01/23 12:07:13;;;;;;;;;;;2.50;96.70;;;;;;5001882;28;19937;-79
2023/01/23 12:09:44;;;;;;;;;;;2.50;96.60;;;;;;5004142;28;19929;-78
2023/01/23 12:12:14;;;;;;;;;;;2.50;96.50;;;;;;5007244;28;20020;-80
2023/01/23 12:14:47;;;;;;;;;;;2.50;96.50;;;;;;5010384;28;21368;-80
2023/01/23 12:17:18;;;;;;;;;;;2.50;96.40;;;;;;5006928;28;19930;-83
2023/01/23 12:19:59;;;;;;;;;;;2.60;96.40;;;;;;5003476;28;19929;-81
2023/01/23 12:22:29;;;;;;;;;;;2.60;96.30;;;;;;5007565;28;19931;-79
2023/01/23 12:25:02;;;;;;;;;;;2.60;96.30;;;;;;5009115;28;19933;-79
2023/01/23 12:27:34;;;;;;;;;;;2.60;96.30;;;;;;5008701;28;19948;-81
2023/01/23 12:30:21;;;;;;;;;;;2.60;96.30;;;;;;5007494;28;20011;-77
2023/01/23 12:32:58;;;;;;;;;;;2.60;96.30;;;;;;5013915;28;19987;-81
2023/01/23 12:35:31;;;;;;;;;;;2.60;96.30;;;;;;5005185;28;20872;-81
2023/01/23 12:38:16;;;;;;;;;;;2.60;96.30;;;;;;5006513;28;19956;-82
2023/01/23 12:40:45;;;;;;;;;;;2.60;96.30;;;;;;5004696;28;19940;-81
2023/01/23 12:43:14;;;;;;;;;;;2.60;96.30;;;;;;5006583;28;19991;-78
2023/01/23 12:45:45;;;;;;;;;;;2.60;96.30;;;;;;5008644;28;19983;-80
2023/01/23 12:48:14;;;;;;;;;;;2.60;96.30;;;;;;5006563;28;20245;-78
2023/01/23 12:50:43;;;;;;;;;;;2.60;96.30;;;;;;5005664;28;19934;-81
2023/01/23 12:53:11;;;;;;;;;;;2.60;96.30;;;;;;5001490;28;19930;-81
2023/01/23 12:55:39;;;;;;;;;;;2.60;96.40;;;;;;5007618;28;20399;-78
2023/01/23 12:58:06;;;;;;;;;;;2.70;96.40;;;;;;5007928;28;19940;-78
2023/01/23 13:00:48;;;;;;;;;;;2.70;96.40;;;;;;5005201;28;19941;-78
2023/01/23 13:03:22;;;;;;;;;;;2.70;96.40;;;;;;5006099;28;19930;-77
2023/01/23 13:05:55;;;;;;;;;;;2.70;96.30;;;;;;5007545;28;19933;-78
2023/01/23 13:08:25;;;;;;;;;;;2.80;96.30;;;;;;5004142;28;19933;-77
2023/01/23 13:13:46;;;;;;;;;;;2.80;96.30;;;;;;5005341;28;19956;-77
2023/01/23 13:16:15;;;;;;;;;;;2.90;96.20;;;;;;5006097;28;19929;-77
2023/01/23 13:27:26;;;;;;;;;;;3.10;95.80;;;;;;4997645;28;19929;-79
2023/01/23 13:29:52;;;;;;;;;;;3.10;95.70;;;;;;5004445;28;19976;-76
2023/01/23 13:32:22;;;;;;;;;;;3.10;95.60;;;;;;5011857;28;19929;-76
2023/01/23 13:34:48;;;;;;;;;;;3.10;95.60;;;;;;5006806;28;19930;-77
2023/01/23 13:37:49;;;;;;;;;;;3.10;95.60;;;;;;5007789;28;19929;-78
2023/01/23 13:40:18;;;;;;;;;;;3.10;95.70;;;;;;5005130;28;19933;-78
2023/01/23 13:42:44;;;;;;;;;;;3.10;95.60;;;;;;4996675;28;19934;-79
2023/01/23 13:45:18;;;;;;;;;;;3.10;95.60;;;;;;4999955;28;20008;-77
2023/01/23 13:50:36;;;;;;;;;;;3.10;95.70;;;;;;5001617;28;20150;-82
2023/01/23 13:58:41;;;;;;;;;;;3.10;95.90;;;;;;5003458;28;19968;-79
2023/01/23 14:06:44;;;;;;;;;;;3.00;96.00;;;;;;4971564;28;19936;-80
2023/01/23 14:09:19;;;;;;;;;;;3.00;96.00;;;;;;4995083;28;19981;-79
2023/01/23 14:11:45;;;;;;;;;;;3.00;96.00;;;;;;4991304;28;20390;-79
2023/01/23 14:16:56;;;;;;;;;;;3.00;96.00;;;;;;4997985;28;20041;-78
2023/01/23 14:19:26;;;;;;;;;;;3.00;96.00;;;;;;4994107;28;19937;-79
2023/01/23 14:21:54;;;;;;;;;;;3.00;96.00;;;;;;4996843;28;19969;-78
2023/01/23 14:24:22;;;;;;;;;;;3.10;96.00;;;;;;5004284;28;19975;-78
2023/01/23 14:26:49;;;;;;;;;;;3.00;96.10;;;;;;5002695;28;19929;-78
2023/01/23 14:29:19;;;;;;;;;;;3.10;96.10;;;;;;4999767;28;19937;-79
2023/01/23 14:31:46;;;;;;;;;;;3.10;96.10;;;;;;5004247;28;19940;-78
2023/01/23 14:34:15;;;;;;;;;;;3.10;96.10;;;;;;5008061;28;20675;-78
2023/01/23 14:36:45;;;;;;;;;;;3.10;96.10;;;;;;5001352;28;21793;-78
2023/01/23 14:39:15;;;;;;;;;;;3.10;96.10;;;;;;4999006;28;19930;-78
2023/01/23 14:41:41;;;;;;;;;;;3.10;96.10;;;;;;5006733;28;19957;-79
2023/01/23 14:44:16;;;;;;;;;;;3.10;96.00;;;;;;5007635;28;19930;-78
2023/01/23 14:46:42;;;;;;;;;;;3.10;96.00;;;;;;5008297;28;20007;-78
2023/01/23 14:49:09;;;;;;;;;;;3.10;96.00;;;;;;5006378;28;19929;-78
2023/01/23 14:51:36;;;;;;;;;;;3.20;96.00;;;;;;5003957;28;19941;-78
2023/01/23 14:54:05;;;;;;;;;;;3.20;96.00;;;;;;5005610;28;19933;-79
2023/01/23 14:56:32;;;;;;;;;;;3.20;96.00;;;;;;4997696;28;19929;-78
2023/01/23 14:59:01;;;;;;;;;;;3.20;96.00;;;;;;5001882;28;19933;-79
2023/01/23 15:01:28;;;;;;;;;;;3.20;96.00;;;;;;5005291;28;20478;-78
2023/01/23 15:03:56;;;;;;;;;;;3.20;95.90;;;;;;5004301;28;20056;-78
2023/01/23 15:06:23;;;;;;;;;;;3.20;95.90;;;;;;5008269;28;19929;-78
2023/01/23 15:08:49;;;;;;;;;;;3.20;95.90;;;;;;5004346;28;19930;-79
2023/01/23 15:11:24;;;;;;;;;;;3.20;95.90;;;;;;5002326;28;19933;-79